createdAt,value
2019-04-16T00:00:44.991Z,4.60
2019-04-16T00:03:13.408Z,4.60
2019-04-16T00:05:58.492Z,4.60
2019-04-16T00:08:30.217Z,4.60
2019-04-16T00:11:00.444Z,4.60
2019-04-16T00:13:47.023Z,4.60
2019-04-16T00:16:15.628Z,4.50
2019-04-16T00:18:56.609Z,4.50
2019-04-16T00:21:18.612Z,4.50
2019-04-16T00:23:57.679Z,4.50
2019-04-16T00:26:26.767Z,4.40
2019-04-16T00:28:56.605Z,4.30
2019-04-16T00:31:25.203Z,4.30
2019-04-16T00:33:53.631Z,4.20
2019-04-16T00:36:22.088Z,4.20
2019-04-16T00:38:53.910Z,4.20
2019-04-16T00:41:20.762Z,4.20
2019-04-16T00:43:49.192Z,4.20
2019-04-16T00:46:17.647Z,4.20
2019-04-16T00:48:46.081Z,4.30
2019-04-16T00:51:14.801Z,4.30
2019-04-16T00:53:43.225Z,4.30
2019-04-16T00:56:13.412Z,4.20
2019-04-16T00:58:42.820Z,4.20
2019-04-16T01:01:11.351Z,4.10
2019-04-16T01:03:39.780Z,4.10
2019-04-16T01:06:08.485Z,4.20
2019-04-16T01:08:37.038Z,4.20
2019-04-16T01:11:05.494Z,4.20
2019-04-16T01:13:33.915Z,4.20
2019-04-16T01:16:03.792Z,4.10
2019-04-16T01:18:32.715Z,4.10
2019-04-16T01:21:03.892Z,4.10
2019-04-16T01:23:32.322Z,4.00
2019-04-16T01:26:00.791Z,4.00
2019-04-16T01:28:33.264Z,4.00
2019-04-16T01:31:19.808Z,4.00
2019-04-16T01:33:55.680Z,4.00
2019-04-16T01:36:25.776Z,4.00
2019-04-16T01:39:14.920Z,3.90
2019-04-16T01:41:28.995Z,3.90
2019-04-16T01:43:58.183Z,3.90
2019-04-16T01:46:26.949Z,3.80
2019-04-16T01:48:55.768Z,3.80
2019-04-16T01:51:24.219Z,3.70
2019-04-16T01:53:53.025Z,3.70
2019-04-16T01:56:21.577Z,3.70
2019-04-16T01:58:50.005Z,3.70
2019-04-16T02:01:18.432Z,3.80
2019-04-16T02:03:48.856Z,3.80
2019-04-16T02:06:17.096Z,3.70
2019-04-16T02:08:45.566Z,3.60
2019-04-16T02:11:14.340Z,3.60
2019-04-16T02:13:45.843Z,3.60
2019-04-16T02:16:13.008Z,3.70
2019-04-16T02:18:41.459Z,3.70
2019-04-16T02:21:11.143Z,3.80
2019-04-16T02:23:39.856Z,3.80
2019-04-16T02:26:08.329Z,3.70
2019-04-16T02:28:36.814Z,3.70
2019-04-16T02:31:13.725Z,3.60
2019-04-16T02:33:35.415Z,3.60
2019-04-16T02:36:03.971Z,3.60
2019-04-16T02:38:32.427Z,3.50
2019-04-16T02:41:00.852Z,3.50
2019-04-16T02:43:29.371Z,3.50
2019-04-16T02:45:58.810Z,3.50
2019-04-16T02:48:27.364Z,3.60
2019-04-16T02:51:05.280Z,3.60
2019-04-16T02:53:38.216Z,3.50
2019-04-16T02:56:18.725Z,3.50
2019-04-16T02:58:46.296Z,3.50
2019-04-16T03:01:31.457Z,3.50
2019-04-16T03:04:04.402Z,3.50
2019-04-16T03:06:32.859Z,3.50
2019-04-16T03:09:01.279Z,3.50
2019-04-16T03:11:30.244Z,3.50
2019-04-16T03:13:59.495Z,3.50
2019-04-16T03:16:32.567Z,3.50
2019-04-16T03:19:04.580Z,3.50
2019-04-16T03:21:33.036Z,3.50
2019-04-16T03:24:01.462Z,3.40
2019-04-16T03:26:29.924Z,3.40
2019-04-16T03:28:59.191Z,3.40
2019-04-16T03:31:27.980Z,3.30
2019-04-16T03:33:56.473Z,3.30
2019-04-16T03:36:26.542Z,3.30
2019-04-16T03:38:55.404Z,3.30
2019-04-16T03:41:25.073Z,3.30
2019-04-16T03:43:54.004Z,3.30
2019-04-16T03:46:22.460Z,3.20
2019-04-16T03:48:52.622Z,3.10
2019-04-16T03:51:21.343Z,3.10
2019-04-16T03:53:50.380Z,3.10
2019-04-16T03:56:18.827Z,3.00
2019-04-16T03:58:47.290Z,3.00
2019-04-16T04:01:15.870Z,2.90
2019-04-16T04:03:44.344Z,2.80
2019-04-16T04:06:12.831Z,2.80
2019-04-16T04:08:41.552Z,2.80
2019-04-16T04:11:10.673Z,2.90
2019-04-16T04:13:39.676Z,3.00
2019-04-16T04:16:08.173Z,3.00
2019-04-16T04:18:36.635Z,3.10
2019-04-16T04:21:05.047Z,3.00
2019-04-16T04:23:33.511Z,3.00
2019-04-16T04:26:01.927Z,3.00
2019-04-16T04:28:30.380Z,3.00
2019-04-16T04:31:00.765Z,3.00
2019-04-16T04:33:41.676Z,3.00
2019-04-16T04:36:10.339Z,2.90
2019-04-16T04:38:39.327Z,3.00
2019-04-16T04:41:08.291Z,3.00
2019-04-16T04:43:36.828Z,2.90
2019-04-16T04:46:05.469Z,3.00
2019-04-16T04:48:34.009Z,3.00
2019-04-16T04:51:06.962Z,2.90
2019-04-16T04:53:32.795Z,2.80
2019-04-16T04:56:01.479Z,2.70
2019-04-16T04:58:33.839Z,2.70
2019-04-16T05:01:00.398Z,2.80
2019-04-16T05:03:39.719Z,2.90
2019-04-16T05:06:18.651Z,3.00
2019-04-16T05:08:47.112Z,3.00
2019-04-16T05:11:16.844Z,3.00
2019-04-16T05:13:45.585Z,3.10
2019-04-16T05:16:14.017Z,3.20
2019-04-16T05:18:42.696Z,3.20
2019-04-16T05:21:11.343Z,3.30
2019-04-16T05:23:39.818Z,3.30
2019-04-16T05:26:09.849Z,3.30
2019-04-16T05:28:44.476Z,3.30
2019-04-16T05:31:08.771Z,3.40
2019-04-16T05:33:38.078Z,3.40
2019-04-16T05:36:06.733Z,3.40
2019-04-16T05:38:35.185Z,3.40
2019-04-16T05:41:13.136Z,3.50
2019-04-16T05:43:33.856Z,3.40
2019-04-16T05:46:02.285Z,3.50
2019-04-16T05:48:31.032Z,3.60
2019-04-16T05:50:59.960Z,3.60
2019-04-16T05:53:29.191Z,3.70
2019-04-16T05:56:14.456Z,3.80
2019-04-16T05:58:42.908Z,3.90
2019-04-16T06:01:13.767Z,4.00
2019-04-16T06:03:42.711Z,4.10
2019-04-16T06:06:11.401Z,4.20
2019-04-16T06:08:41.613Z,4.30
2019-04-16T06:11:10.001Z,4.50
2019-04-16T06:13:44.362Z,4.60
2019-04-16T06:16:25.161Z,4.70
2019-04-16T06:19:03.721Z,4.80
2019-04-16T06:21:45.843Z,4.90
2019-04-16T06:24:18.839Z,5.00
2019-04-16T06:26:48.899Z,5.10
2019-04-16T06:29:21.937Z,5.20
2019-04-16T06:32:08.466Z,5.40
2019-04-16T06:34:57.319Z,5.40
2019-04-16T06:37:30.156Z,5.50
2019-04-16T06:40:08.951Z,5.60
2019-04-16T06:42:41.973Z,5.60
2019-04-16T06:45:14.871Z,5.70
2019-04-16T06:47:47.655Z,5.80
2019-04-16T06:50:39.560Z,5.90
2019-04-16T06:53:10.327Z,6.00
2019-04-16T06:55:43.159Z,6.10
2019-04-16T06:58:16.710Z,6.20
2019-04-16T07:00:45.105Z,6.30
2019-04-16T07:03:26.051Z,6.40
2019-04-16T07:06:08.020Z,6.60
2019-04-16T07:08:41.966Z,6.70
2019-04-16T07:11:12.147Z,6.90
2019-04-16T07:13:42.253Z,7.00
2019-04-16T07:16:11.072Z,7.10
2019-04-16T07:18:39.563Z,7.20
2019-04-16T07:21:07.984Z,7.30
2019-04-16T07:23:37.125Z,7.50
2019-04-16T07:26:05.744Z,7.60
2019-04-16T07:28:35.859Z,7.70
2019-04-16T07:31:32.729Z,7.90
2019-04-16T07:33:55.783Z,7.90
2019-04-16T07:36:35.533Z,8.00
2019-04-16T07:39:09.655Z,8.10
2019-04-16T07:41:43.213Z,8.20
2019-04-16T07:44:13.977Z,8.30
2019-04-16T07:47:00.348Z,8.40
2019-04-16T07:49:30.484Z,8.40
2019-04-16T07:52:17.324Z,8.60
2019-04-16T07:55:03.828Z,8.70
2019-04-16T07:57:32.274Z,8.80
2019-04-16T08:00:00.703Z,9.00
2019-04-16T08:02:29.172Z,9.20
2019-04-16T08:04:57.902Z,9.30
2019-04-16T08:07:26.370Z,9.50
2019-04-16T08:09:54.930Z,9.60
2019-04-16T08:12:30.536Z,9.70
2019-04-16T08:14:53.666Z,9.80
2019-04-16T08:17:22.123Z,9.90
2019-04-16T08:19:50.547Z,9.90
2019-04-16T08:22:19.045Z,10.10
2019-04-16T08:24:49.209Z,10.20
2019-04-16T08:27:19.212Z,10.30
2019-04-16T08:29:48.240Z,10.30
2019-04-16T08:32:17.043Z,10.40
2019-04-16T08:34:45.601Z,10.50
2019-04-16T08:37:14.037Z,10.60
2019-04-16T08:39:42.784Z,10.70
2019-04-16T08:42:11.212Z,10.80
2019-04-16T08:44:39.669Z,10.80
2019-04-16T08:47:12.075Z,10.90
2019-04-16T08:49:39.639Z,11.00
2019-04-16T08:52:10.198Z,11.10
2019-04-16T08:54:38.303Z,11.20
2019-04-16T08:57:07.154Z,11.30
2019-04-16T08:59:35.627Z,11.40
2019-04-16T09:02:04.051Z,11.40
2019-04-16T09:04:34.659Z,11.50
2019-04-16T09:07:11.391Z,11.60
2019-04-16T09:09:46.482Z,11.60
2019-04-16T09:12:14.118Z,11.60
2019-04-16T09:14:44.291Z,11.80
2019-04-16T09:17:17.325Z,11.90
2019-04-16T09:19:47.419Z,12.00
2019-04-16T09:22:17.078Z,12.10
2019-04-16T09:24:52.865Z,12.20
2019-04-16T09:27:25.904Z,12.20
2019-04-16T09:30:04.021Z,12.30
2019-04-16T09:32:48.707Z,12.30
2019-04-16T09:35:20.299Z,12.30
2019-04-16T09:38:09.358Z,12.50
2019-04-16T09:40:49.294Z,12.50
2019-04-16T09:43:25.968Z,12.70
2019-04-16T09:45:54.430Z,12.70
2019-04-16T09:48:22.851Z,12.70
2019-04-16T09:50:51.311Z,12.70
2019-04-16T09:53:32.182Z,12.80
2019-04-16T09:55:50.625Z,12.90
2019-04-16T09:58:24.224Z,13.00
2019-04-16T10:01:00.095Z,12.90
2019-04-16T10:03:39.128Z,12.90
2019-04-16T10:06:07.871Z,13.10
2019-04-16T10:08:36.295Z,13.10
2019-04-16T10:11:06.285Z,13.20
2019-04-16T10:13:36.603Z,13.30
2019-04-16T10:16:05.334Z,13.30
2019-04-16T10:18:35.069Z,13.40
2019-04-16T10:21:04.180Z,13.50
2019-04-16T10:23:37.177Z,13.60
2019-04-16T10:26:05.955Z,13.60
2019-04-16T10:28:37.057Z,13.60
2019-04-16T10:31:06.247Z,13.60
2019-04-16T10:33:34.754Z,13.60
2019-04-16T10:36:04.661Z,13.80
2019-04-16T10:38:40.713Z,13.90
2019-04-16T10:41:13.509Z,14.00
2019-04-16T10:44:01.679Z,14.00
2019-04-16T10:46:34.887Z,14.00
2019-04-16T10:49:20.148Z,14.10
2019-04-16T10:51:50.360Z,14.20
2019-04-16T10:54:29.656Z,14.20
2019-04-16T10:57:16.100Z,14.20
2019-04-16T10:59:46.208Z,14.30
2019-04-16T11:02:32.876Z,14.40
2019-04-16T11:05:03.268Z,14.50
2019-04-16T11:07:36.000Z,14.60
2019-04-16T11:10:06.866Z,14.50
2019-04-16T11:12:35.276Z,14.50
2019-04-16T11:15:04.161Z,14.60
2019-04-16T11:17:32.615Z,14.70
2019-04-16T11:20:01.584Z,14.80
2019-04-16T11:22:30.083Z,14.80
2019-04-16T11:24:58.572Z,14.70
2019-04-16T11:27:27.032Z,14.80
2019-04-16T11:29:55.459Z,15.00
2019-04-16T11:32:25.570Z,15.00
2019-04-16T11:34:54.082Z,14.90
2019-04-16T11:37:22.532Z,15.00
2019-04-16T11:39:51.041Z,15.20
2019-04-16T11:42:19.497Z,15.20
2019-04-16T11:44:50.237Z,15.30
2019-04-16T11:47:18.184Z,15.50
2019-04-16T11:49:46.685Z,15.40
2019-04-16T11:52:15.210Z,15.70
2019-04-16T11:54:46.805Z,15.70
2019-04-16T11:57:13.990Z,15.50
2019-04-16T11:59:42.508Z,15.70
2019-04-16T12:02:12.646Z,15.70
2019-04-16T12:04:45.233Z,15.80
2019-04-16T12:07:21.194Z,15.90
2019-04-16T12:10:03.469Z,16.00
2019-04-16T12:12:36.640Z,16.00
2019-04-16T12:15:13.357Z,15.90
2019-04-16T12:17:55.748Z,15.80
2019-04-16T12:20:42.107Z,15.70
2019-04-16T12:23:12.245Z,15.90
2019-04-16T12:25:54.732Z,16.10
2019-04-16T12:28:27.480Z,15.90
2019-04-16T12:31:16.702Z,16.00
2019-04-16T12:33:45.987Z,15.90
2019-04-16T12:36:32.652Z,16.00
2019-04-16T12:39:08.753Z,16.20
2019-04-16T12:41:54.489Z,16.10
2019-04-16T12:44:27.121Z,16.10
2019-04-16T12:47:00.049Z,16.10
2019-04-16T12:49:46.433Z,16.10
2019-04-16T12:52:32.766Z,16.20
2019-04-16T12:55:19.334Z,16.40
2019-04-16T12:57:52.152Z,16.30
2019-04-16T13:00:26.076Z,16.20
2019-04-16T13:03:10.541Z,16.10
2019-04-16T13:05:44.653Z,16.10
2019-04-16T13:08:15.305Z,16.30
2019-04-16T13:10:53.980Z,16.30
2019-04-16T13:13:40.406Z,16.20
2019-04-16T13:16:13.206Z,16.20
2019-04-16T13:18:59.413Z,16.10
2019-04-16T13:21:29.511Z,16.20
2019-04-16T13:24:02.265Z,16.30
2019-04-16T13:26:32.418Z,16.40
2019-04-16T13:29:02.477Z,16.40
2019-04-16T13:31:30.936Z,16.50
2019-04-16T13:33:59.361Z,16.40
2019-04-16T13:36:28.079Z,16.40
2019-04-16T13:38:58.263Z,16.40
2019-04-16T13:41:27.161Z,16.50
2019-04-16T13:44:17.234Z,16.50
2019-04-16T13:46:45.945Z,16.50
2019-04-16T13:49:24.360Z,16.50
2019-04-16T13:51:52.403Z,16.50
2019-04-16T13:54:22.455Z,16.70
2019-04-16T13:56:52.547Z,16.80
2019-04-16T13:59:30.253Z,16.80
2019-04-16T14:02:02.708Z,16.70
2019-04-16T14:04:31.918Z,17.00
2019-04-16T14:07:00.467Z,17.00
2019-04-16T14:09:28.883Z,17.10
2019-04-16T14:11:57.355Z,17.10
2019-04-16T14:14:25.805Z,16.90
2019-04-16T14:16:54.320Z,16.80
2019-04-16T14:19:23.080Z,16.80
2019-04-16T14:21:51.540Z,16.80
2019-04-16T14:24:19.984Z,16.90
2019-04-16T14:26:48.457Z,17.10
2019-04-16T14:29:16.908Z,17.10
2019-04-16T14:31:51.241Z,17.10
2019-04-16T14:34:23.924Z,17.20
2019-04-16T14:36:53.247Z,17.10
2019-04-16T14:39:33.164Z,17.10
2019-04-16T14:42:01.617Z,17.20
2019-04-16T14:44:34.516Z,17.10
2019-04-16T14:47:02.109Z,17.10
2019-04-16T14:49:30.659Z,17.20
2019-04-16T14:52:01.982Z,17.30
2019-04-16T14:54:42.755Z,17.50
2019-04-16T14:57:11.535Z,17.60
2019-04-16T14:59:41.757Z,17.40
2019-04-16T15:02:11.817Z,17.40
2019-04-16T15:04:58.321Z,17.30
2019-04-16T15:07:44.334Z,17.40
2019-04-16T15:10:30.752Z,17.50
2019-04-16T15:13:17.055Z,17.50
2019-04-16T15:15:47.153Z,17.40
2019-04-16T15:18:17.211Z,17.50
2019-04-16T15:21:03.980Z,17.50
2019-04-16T15:23:35.560Z,17.50
2019-04-16T15:26:11.856Z,17.50
2019-04-16T15:28:57.261Z,17.50
2019-04-16T15:31:33.713Z,17.50
2019-04-16T15:34:22.150Z,17.50
2019-04-16T15:37:01.043Z,17.50
2019-04-16T15:39:36.893Z,17.50
2019-04-16T15:42:16.364Z,17.60
2019-04-16T15:44:44.484Z,17.60
2019-04-16T15:47:14.979Z,17.60
2019-04-16T15:49:49.669Z,17.50
2019-04-16T15:52:22.752Z,17.50
2019-04-16T15:54:53.093Z,17.50
2019-04-16T15:57:39.463Z,17.50
2019-04-16T16:00:26.365Z,17.40
2019-04-16T16:03:08.764Z,17.40
2019-04-16T16:05:44.548Z,17.40
2019-04-16T16:08:14.628Z,17.40
2019-04-16T16:10:45.454Z,17.50
2019-04-16T16:13:14.518Z,17.70
2019-04-16T16:15:43.001Z,17.70
2019-04-16T16:18:11.427Z,17.60
2019-04-16T16:20:39.880Z,17.60
2019-04-16T16:23:08.312Z,17.60
2019-04-16T16:25:41.143Z,17.50
2019-04-16T16:28:07.219Z,17.60
2019-04-16T16:30:36.201Z,17.60
2019-04-16T16:33:04.692Z,17.50
2019-04-16T16:35:34.995Z,17.50
2019-04-16T16:38:03.648Z,17.50
2019-04-16T16:40:32.192Z,17.50
2019-04-16T16:43:00.949Z,17.60
2019-04-16T16:45:40.334Z,17.60
2019-04-16T16:48:08.827Z,17.50
2019-04-16T16:50:37.317Z,17.50
2019-04-16T16:53:10.631Z,17.50
2019-04-16T16:55:40.726Z,17.70
2019-04-16T16:58:10.855Z,17.90
2019-04-16T17:00:43.798Z,18.00
2019-04-16T17:03:25.860Z,18.20
2019-04-16T17:05:54.336Z,18.20
2019-04-16T17:08:22.756Z,17.70
2019-04-16T17:10:51.214Z,17.30
2019-04-16T17:13:21.169Z,17.00
2019-04-16T17:15:49.864Z,16.90
2019-04-16T17:18:18.372Z,17.00
2019-04-16T17:20:50.035Z,17.20
2019-04-16T17:23:17.381Z,17.30
2019-04-16T17:25:45.947Z,17.40
2019-04-16T17:28:14.376Z,17.30
2019-04-16T17:30:42.868Z,17.10
2019-04-16T17:33:11.343Z,16.90
2019-04-16T17:35:39.771Z,16.70
2019-04-16T17:38:08.235Z,16.40
2019-04-16T17:40:38.291Z,16.20
2019-04-16T17:43:13.894Z,15.90
2019-04-16T17:45:51.945Z,15.70
2019-04-16T17:48:28.126Z,15.50
2019-04-16T17:51:00.755Z,15.30
2019-04-16T17:53:30.895Z,15.20
2019-04-16T17:56:17.233Z,15.10
2019-04-16T17:58:47.374Z,14.90
2019-04-16T18:01:20.367Z,14.80
2019-04-16T18:04:10.480Z,14.70
2019-04-16T18:06:54.693Z,14.60
2019-04-16T18:09:33.758Z,14.50
2019-04-16T18:12:16.967Z,14.30
2019-04-16T18:14:59.436Z,14.20
2019-04-16T18:17:47.381Z,14.20
2019-04-16T18:20:25.712Z,14.10
2019-04-16T18:22:58.528Z,14.00
2019-04-16T18:25:54.891Z,13.90
2019-04-16T18:28:12.722Z,13.80
2019-04-16T18:30:48.280Z,13.70
2019-04-16T18:33:30.319Z,13.60
2019-04-16T18:36:01.898Z,13.50
2019-04-16T18:38:37.203Z,13.50
2019-04-16T18:41:13.292Z,13.40
2019-04-16T18:43:59.602Z,13.30
2019-04-16T18:46:41.859Z,13.30
2019-04-16T18:49:17.476Z,13.10
2019-04-16T18:51:45.061Z,13.10
2019-04-16T18:54:15.038Z,13.00
2019-04-16T18:56:43.714Z,12.90
2019-04-16T18:59:12.231Z,12.80
2019-04-16T19:01:42.304Z,12.70
2019-04-16T19:04:14.412Z,12.70
2019-04-16T19:06:42.836Z,12.60
2019-04-16T19:09:11.308Z,12.60
2019-04-16T19:11:39.745Z,12.50
2019-04-16T19:14:10.342Z,12.40
2019-04-16T19:16:38.448Z,12.40
2019-04-16T19:19:07.056Z,12.40
2019-04-16T19:21:35.472Z,12.40
2019-04-16T19:24:03.999Z,12.30
2019-04-16T19:26:32.462Z,12.20
2019-04-16T19:29:00.912Z,12.20
2019-04-16T19:31:29.327Z,12.10
2019-04-16T19:33:57.839Z,12.10
2019-04-16T19:36:27.482Z,12.00
2019-04-16T19:38:56.441Z,12.00
2019-04-16T19:41:24.868Z,11.90
2019-04-16T19:43:53.742Z,11.90
2019-04-16T19:46:22.239Z,11.90
2019-04-16T19:48:50.723Z,11.80
2019-04-16T19:51:19.729Z,11.80
2019-04-16T19:53:48.595Z,11.80
2019-04-16T19:56:18.501Z,11.70
2019-04-16T19:58:48.186Z,11.70
2019-04-16T20:01:16.699Z,11.60
2019-04-16T20:03:45.162Z,11.60
2019-04-16T20:06:13.585Z,11.50
2019-04-16T20:08:42.045Z,11.40
2019-04-16T20:11:10.544Z,11.40
2019-04-16T20:13:39.001Z,11.40
2019-04-16T20:16:07.518Z,11.30
2019-04-16T20:18:50.314Z,11.30
2019-04-16T20:21:06.121Z,11.30
2019-04-16T20:23:34.581Z,11.30
2019-04-16T20:26:03.371Z,11.30
2019-04-16T20:28:31.997Z,11.40
2019-04-16T20:31:03.727Z,11.40
2019-04-16T20:33:31.962Z,11.30
2019-04-16T20:36:00.487Z,11.10
2019-04-16T20:38:29.997Z,11.10
2019-04-16T20:40:58.549Z,11.10
2019-04-16T20:43:27.010Z,11.00
2019-04-16T20:45:55.826Z,10.90
2019-04-16T20:48:24.300Z,10.80
2019-04-16T20:50:53.650Z,10.70
2019-04-16T20:53:22.902Z,10.60
2019-04-16T20:55:51.392Z,10.60
2019-04-16T20:58:19.852Z,10.50
2019-04-16T21:00:49.923Z,10.40
2019-04-16T21:03:22.270Z,10.30
2019-04-16T21:05:58.066Z,10.30
2019-04-16T21:08:24.404Z,10.20
2019-04-16T21:10:48.894Z,10.20
2019-04-16T21:13:17.348Z,10.20
2019-04-16T21:15:45.775Z,10.20
2019-04-16T21:18:14.205Z,10.20
2019-04-16T21:20:42.668Z,10.20
2019-04-16T21:23:11.099Z,10.10
2019-04-16T21:25:39.635Z,10.10
2019-04-16T21:28:12.520Z,10.10
2019-04-16T21:30:43.401Z,10.10
2019-04-16T21:33:13.455Z,10.10
2019-04-16T21:35:46.507Z,10.10
2019-04-16T21:38:19.166Z,10.00
2019-04-16T21:40:47.640Z,9.90
2019-04-16T21:43:16.128Z,9.90
2019-04-16T21:45:45.557Z,9.80
2019-04-16T21:48:14.212Z,9.70
2019-04-16T21:50:44.530Z,9.70
2019-04-16T21:53:12.887Z,9.60
2019-04-16T21:55:41.339Z,9.60
2019-04-16T21:58:09.756Z,9.60
2019-04-16T22:00:39.958Z,9.60
2019-04-16T22:03:10.999Z,9.50
2019-04-16T22:05:39.475Z,9.50
2019-04-16T22:08:07.982Z,9.50
2019-04-16T22:10:36.513Z,9.50
2019-04-16T22:13:05.172Z,9.40
2019-04-16T22:15:33.618Z,9.30
2019-04-16T22:18:07.415Z,9.20
2019-04-16T22:20:35.638Z,9.20
2019-04-16T22:23:02.375Z,9.10
2019-04-16T22:25:30.836Z,9.10
2019-04-16T22:27:59.273Z,9.00
2019-04-16T22:30:27.732Z,8.90
2019-04-16T22:32:56.222Z,8.90
2019-04-16T22:35:24.738Z,8.90
2019-04-16T22:37:53.439Z,8.90
2019-04-16T22:40:23.632Z,8.80
2019-04-16T22:43:08.020Z,8.80
2019-04-16T22:45:40.496Z,8.70
2019-04-16T22:48:08.928Z,8.70
2019-04-16T22:50:37.992Z,8.60
2019-04-16T22:53:07.179Z,8.50
2019-04-16T22:55:36.256Z,8.50
2019-04-16T22:58:05.022Z,8.50
2019-04-16T23:00:35.543Z,8.40
2019-04-16T23:03:04.036Z,8.30
2019-04-16T23:05:32.491Z,8.30
2019-04-16T23:08:00.916Z,8.30
2019-04-16T23:10:29.378Z,8.30
2019-04-16T23:13:00.414Z,8.20
2019-04-16T23:15:28.259Z,8.00
2019-04-16T23:17:56.679Z,7.90
2019-04-16T23:20:29.623Z,7.80
2019-04-16T23:22:55.277Z,7.70
2019-04-16T23:25:26.771Z,7.70
2019-04-16T23:27:53.978Z,7.60
2019-04-16T23:30:22.434Z,7.60
2019-04-16T23:32:51.109Z,7.50
2019-04-16T23:35:19.565Z,7.50
2019-04-16T23:37:47.983Z,7.50
2019-04-16T23:40:16.435Z,7.50
2019-04-16T23:42:47.462Z,7.40
2019-04-16T23:45:21.467Z,7.30
2019-04-16T23:47:57.550Z,7.30
2019-04-16T23:50:44.876Z,7.30
2019-04-16T23:53:11.052Z,7.20
2019-04-16T23:55:41.135Z,7.20
2019-04-16T23:58:11.205Z,7.10
